Terminal Aerodrome Forecast
Issued by NWS Shreveport, LA

Home | Current Version | Previous Version | Text Only | Print | Product List | Glossary On
Versions: 1 2 3 4 5 6 7 8 9 10 11 12
188
FTUS44 KSHV 210520
TAFELD
TAF
KELD 210520Z 2106/2206 00000KT P6SM SCT280
     FM211400 18005KT P6SM BKN250
     FM212000 23005KT P6SM BKN100
     FM220400 34005KT P6SM BKN100=

USA.gov is the U.S. government's official web portal to all federal, state and local government web resources and services.